• Join FlightAware (Why Join?)
  • Login
  • US Flag 
03:01AM EDT


 

Airport Tracker/Info


-or-


 

Live Flight TrackerFlight Track Log ✈ ASQ6041 ✈ 17-Apr-2013 ✈ KBHM - KORD

Flight Track Log - Related Links

Times and Time Zones

All times are in EDT time to prevent confusion due to time zone crossing. See the ASQ6041 flight status page for this flight to view local times or setup timezone preferences in your user account.

Time Position Orientation Groundspeed Altitude Reporting Facility
EDT Latitude Longitude Course Direction KTS MPH feet Rate Location/Type
07:03AM 33.5531 -86.7783 268° West 167 192 1,400  Level Atlanta Center
07:04AM 33.5517 -86.8406 268° West 237 273 3,700 2,160 Climbing Atlanta Center
07:05AM 33.6156 -86.8775 334° Northwest 248 285 5,900 2,340 Climbing Atlanta Center
07:06AM 33.6878 -86.9122 338° Northwest 258 297 8,400 2,280 Climbing Atlanta Center
07:07AM 33.7533 -86.9644 326° Northwest 270 311 10,500 1,800 Climbing Atlanta Center
07:08AM 33.8250 -87.0219 326° Northwest 282 325 12,000 1,440 Climbing Atlanta Center
07:10AM 33.9681 -87.1339 327° Northwest 328 377 14,600 1,380 Climbing Memphis Center
07:11AM 34.0492 -87.2011 326° Northwest 342 394 16,000 1,380 Climbing Memphis Center
07:12AM 34.1300 -87.2633 328° Northwest 347 399 17,400 1,260 Climbing Memphis Center
07:13AM 34.2086 -87.3258 327° Northwest 360 414 18,600 1,320 Climbing Memphis Center
07:14AM 34.3000 -87.3978 327° Northwest 360 414 20,100 1,440 Climbing Memphis Center
07:15AM 34.3894 -87.4653 328° Northwest 365 420 21,500 1,440 Climbing Memphis Center
07:16AM 34.4744 -87.5356 326° Northwest 365 420 23,000 1,440 Climbing Memphis Center
07:17AM 34.5614 -87.6031 327° Northwest 365 420 24,400 1,380 Climbing Memphis Center
07:18AM 34.6464 -87.6736 326° Northwest 376 433 25,800 1,440 Climbing Memphis Center
07:19AM 34.7336 -87.7417 327° Northwest 375 432 27,300 1,440 Climbing Memphis Center
07:20AM 34.8183 -87.8097 327° Northwest 365 420 28,700 1,380 Climbing Memphis Center
07:21AM 34.8989 -87.8758 326° Northwest 358 412 30,100 1,380 Climbing Memphis Center
07:22AM 34.9839 -87.9442 327° Northwest 358 412 31,500 1,440 Climbing Memphis Center
07:23AM 35.0622 -88.0131 324° Northwest 360 414 33,000 1,320 Climbing Memphis Center
07:24AM 35.1364 -88.0719 327° Northwest 360 414 34,200 1,200 Climbing Memphis Center
07:25AM 35.2147 -88.1383 325° Northwest 355 409 35,400 900 Climbing Memphis Center
07:26AM 35.2931 -88.2025 326° Northwest 350 403 36,000 300 Climbing Memphis Center
07:27AM 35.3778 -88.2714 326° Northwest 350 403 36,000  Level Memphis Center
07:28AM 35.4667 -88.3431 327° Northwest 367 422 36,000  Level Memphis Center
07:29AM 35.5575 -88.4200 325° Northwest 387 445 36,000  Level Memphis Center
07:30AM 35.6589 -88.5019 327° Northwest 409 471 36,000  Level Memphis Center
07:31AM 35.7558 -88.5817 326° Northwest 416 479 36,000  Level Memphis Center
07:32AM 35.8508 -88.6617 326° Northwest 421 484 36,000  Level Memphis Center
07:33AM 35.9458 -88.7417 326° Northwest 421 484 36,000  Level Memphis Center
07:34AM 36.0428 -88.8244 325° Northwest 421 484 36,000  Level Memphis Center
07:35AM 36.1397 -88.9075 325° Northwest 421 484 36,000  Level Memphis Center
07:36AM 36.2344 -88.9856 326° Northwest 421 484 36,000  Level Memphis Center
07:37AM 36.3311 -89.0639 327° Northwest 421 484 36,000  Level Memphis Center
07:38AM 36.4403 -89.1522 327° Northwest 421 484 36,000  Level Memphis Center
07:39AM 36.5392 -89.2411 324° Northwest 427 491 36,000  Level Memphis Center
07:40AM 36.6294 -89.3253 323° Northwest 427 491 36,000  Level Memphis Center
07:41AM 36.7239 -89.4069 325° Northwest 417 480 36,000  Level Memphis Center
07:42AM 36.8142 -89.4861 325° Northwest 412 474 36,000  Level Memphis Center
07:44AM 37.0111 -89.6536 326° Northwest 399 459 36,000  Level Kansas City Center
07:45AM 37.1019 -89.7319 325° Northwest 398 458 36,000  Level Kansas City Center
07:46AM 37.2133 -89.8289 325° Northwest 404 465 36,000  Level Kansas City Center
07:47AM 37.3064 -89.9097 325° Northwest 408 470 36,000  Level Kansas City Center
07:48AM 37.4014 -89.9911 326° Northwest 411 473 36,000  Level Kansas City Center
07:49AM 37.4992 -90.0672 328° Northwest 414 476 36,000 -180 Level Kansas City Center
07:50AM 37.6136 -90.0994 347° North 432 497 35,700 -540 Descending Kansas City Center
07:51AM 37.7314 -90.1353 346° North 435 501 35,000 -720 Descending Kansas City Center
07:52AM 37.8503 -90.1708 347° North 438 504 34,300 -540 Descending Kansas City Center
07:53AM 37.9864 -90.2144 346° North 435 501 34,000 -180 Descending Kansas City Center
07:54AM 38.0989 -90.2483 347° North 419 482 34,000  Level Kansas City Center
07:55AM 38.2075 -90.2808 347° North 403 464 34,000  Level Kansas City Center
07:56AM 38.3167 -90.3142 347° North 403 464 34,000  Level Kansas City Center
07:57AM 38.4358 -90.3506 347° North 419 482 34,000  Level Kansas City Center
07:58AM 38.5558 -90.3881 346° North 425 489 34,000  Level Kansas City Center
07:59AM 38.6736 -90.4239 347° North 430 495 34,000  Level Kansas City Center
08:00AM 38.7950 -90.4397 354° North 435 501 34,000  Level Kansas City Center
08:01AM 38.9153 -90.4575 353° North 428 493 34,000  Level Kansas City Center
08:02AM 39.0267 -90.5183 337° Northwest 419 482 34,000  Level Kansas City Center
08:03AM 39.1328 -90.5747 338° Northwest 415 478 34,000 -540 Level Kansas City Center
08:05AM 39.2411 -90.6319 338° Northwest 417 480 33,000 -1,080 Descending Kansas City Center
08:06AM 39.3592 -90.6208 North 439 505 31,900 -1,140 Descending Kansas City Center
08:07AM 39.4528 -90.4897 47° Northeast 485 558 30,800 -1,080 Descending Kansas City Center
08:08AM 39.5661 -90.4031 31° Northeast 478 550 29,700 -1,020 Descending Kansas City Center
08:09AM 39.6522 -90.2750 49° Northeast 486 559 28,700 -1,080 Descending Kansas City Center
08:10AM 39.7056 -90.1083 67° East 493 567 27,600 -900 Descending Kansas City Center
08:11AM 39.7694 -89.9478 63° Northeast 501 577 27,000 -300 Descending Kansas City Center
08:12AM 39.8714 -89.8297 42° Northeast 496 571 27,000  Level Kansas City Center
08:13AM 39.9725 -89.7136 41° Northeast 489 563 27,000  Level Kansas City Center
08:14AM 40.0961 -89.5731 41° Northeast 491 565 27,000  Level Kansas City Center
08:14AM 40.1167 -89.5517 39° Northeast 494 568 27,000  Level Chicago Center
08:15AM 40.2314 -89.4183 42° Northeast 464 534 27,000 -180 Level Chicago Center
08:16AM 40.3275 -89.3075 41° Northeast 462 532 26,700 -660 Descending Chicago Center
08:17AM 40.4278 -89.1917 41° Northeast 479 551 25,700 -1,020 Descending Chicago Center
08:18AM 40.5267 -89.0758 42° Northeast 480 552 24,700 -840 Descending Chicago Center
08:19AM 40.6250 -88.9597 42° Northeast 479 551 24,000 -360 Descending Chicago Center
08:20AM 40.7233 -88.8450 41° Northeast 475 547 24,000 -660 Level Chicago Center
08:21AM 40.8489 -88.7342 34° Northeast 459 528 22,700 -1,860 Descending Chicago Center
08:22AM 40.9694 -88.7092 North 441 507 20,300 -2,400 Descending Chicago Center
08:23AM 41.0861 -88.6936 North 427 491 17,800 -2,280 Descending Chicago Center
08:24AM 41.2000 -88.6775 North 415 478 15,700 -1,860 Descending Chicago Center
08:25AM 41.3094 -88.6589 North 401 461 14,000 -1,800 Descending Chicago Center
08:26AM 41.4061 -88.6467 North 358 412 12,100 -1,320 Descending Chicago Center
08:27AM 41.4947 -88.6308 North 324 373 11,300 -540 Descending Chicago Center
08:28AM 41.5736 -88.5417 40° Northeast 320 368 11,000 -780 Descending Chicago Center
08:29AM 41.5931 -88.4283 77° East 315 362 9,700 -1,140 Descending Chicago Center
08:30AM 41.6128 -88.3161 77° East 311 358 8,700 -840 Descending Chicago Center
08:31AM 41.6644 -88.2392 48° Northeast 286 329 8,000 -900 Descending Chicago Center
08:33AM 41.7211 -88.1717 42° Northeast 274 315 6,900 -1,200 Descending Chicago Center
08:34AM 41.7728 -88.1122 41° Northeast 249 287 5,600 -1,200 Descending Chicago Center
08:35AM 41.8133 -88.0650 41° Northeast 213 245 4,500 -960 Descending Chicago Center
08:36AM 41.8517 -88.0178 43° Northeast 199 229 3,700 -1,080 Descending Chicago Center
08:37AM 41.8956 -87.9683 40° Northeast 183 211 2,300 -1,140 Descending Chicago Center
08:38AM 41.9167 -87.9333 51° Northeast 119 137 1,500 -720 Descending Chicago TRACON
08:38AM 41.9500 -87.9167 20° North 121 139 1,000 -600 Descending Chicago TRACON
08:41AM 41.9667 -87.9000 41° Northeast  Level FlightAware Approximate